createdAt,value
2018-12-29T00:01:12.869Z,6.88
2018-12-29T00:06:15.060Z,6.88
2018-12-29T00:11:17.777Z,6.92
2018-12-29T00:16:20.187Z,6.89
2018-12-29T00:21:22.672Z,6.90
2018-12-29T00:26:24.878Z,6.88
2018-12-29T00:31:27.091Z,6.90
2018-12-29T00:36:29.303Z,6.90
2018-12-29T00:41:31.841Z,6.90
2018-12-29T00:46:34.495Z,6.90
2018-12-29T00:51:36.685Z,6.87
2018-12-29T00:56:38.838Z,6.88
2018-12-29T01:01:40.999Z,6.89
2018-12-29T01:06:43.149Z,6.92
2018-12-29T01:11:45.324Z,6.92
2018-12-29T01:16:47.589Z,6.91
2018-12-29T01:21:50.207Z,6.88
2018-12-29T01:26:52.630Z,6.91
2018-12-29T01:31:54.853Z,6.91
2018-12-29T01:36:57.679Z,6.89
2018-12-29T01:41:59.896Z,6.88
2018-12-29T01:47:02.638Z,6.89
2018-12-29T01:52:05.513Z,6.91
2018-12-29T01:57:08.257Z,6.91
2018-12-29T02:02:11.139Z,6.91
2018-12-29T02:07:14.019Z,6.87
2018-12-29T02:12:16.478Z,6.87
2018-12-29T02:17:19.172Z,6.89
2018-12-29T02:22:21.434Z,6.88
2018-12-29T02:27:23.823Z,6.90
2018-12-29T02:32:26.242Z,6.89
2018-12-29T02:37:28.451Z,6.87
2018-12-29T02:42:30.657Z,6.89
2018-12-29T02:47:33.551Z,6.87
2018-12-29T02:52:37.206Z,6.89
2018-12-29T02:57:39.637Z,6.89
2018-12-29T03:02:41.853Z,6.87
2018-12-29T03:07:44.061Z,6.84
2018-12-29T03:12:46.551Z,6.85
2018-12-29T03:17:48.750Z,6.85
2018-12-29T03:22:51.814Z,6.86
2018-12-29T03:27:54.253Z,6.80
2018-12-29T03:32:56.424Z,6.80
2018-12-29T03:37:59.329Z,6.75
2018-12-29T03:43:02.015Z,6.77
2018-12-29T03:48:04.205Z,6.78
2018-12-29T03:53:06.573Z,6.79
2018-12-29T03:58:09.220Z,6.84
2018-12-29T04:03:11.841Z,6.87
2018-12-29T04:08:14.282Z,6.87
2018-12-29T04:13:16.998Z,6.81
2018-12-29T04:18:19.428Z,6.80
2018-12-29T04:23:22.352Z,6.74
2018-12-29T04:28:24.656Z,6.75
2018-12-29T04:33:27.087Z,6.75
2018-12-29T04:38:29.747Z,6.77
2018-12-29T04:43:32.204Z,6.79
2018-12-29T04:48:34.757Z,6.78
2018-12-29T04:53:37.684Z,6.77
2018-12-29T04:58:39.853Z,6.77
2018-12-29T05:03:42.047Z,6.73
2018-12-29T05:08:44.949Z,6.74
2018-12-29T05:13:48.127Z,6.73
2018-12-29T05:18:50.782Z,6.73
2018-12-29T05:23:53.590Z,6.74
2018-12-29T05:28:55.801Z,6.76
2018-12-29T05:33:58.336Z,6.75
2018-12-29T05:39:00.794Z,6.71
2018-12-29T05:44:03.007Z,6.67
2018-12-29T05:49:05.188Z,6.66
2018-12-29T05:54:07.592Z,6.64
2018-12-29T05:59:10.127Z,6.58
2018-12-29T06:04:12.410Z,6.57
2018-12-29T06:09:14.591Z,6.58
2018-12-29T06:14:17.621Z,6.59
2018-12-29T06:19:20.777Z,6.58
2018-12-29T06:24:22.964Z,6.57
2018-12-29T06:29:25.656Z,6.58
2018-12-29T06:34:28.623Z,6.59
2018-12-29T06:39:31.068Z,6.57
2018-12-29T06:44:33.953Z,6.56
2018-12-29T06:49:36.267Z,6.59
2018-12-29T06:54:38.439Z,6.58
2018-12-29T06:59:40.603Z,6.58
2018-12-29T07:04:43.515Z,6.53
2018-12-29T07:09:46.188Z,6.55
2018-12-29T07:14:48.900Z,6.49
2018-12-29T07:19:51.781Z,6.48
2018-12-29T07:24:54.630Z,6.48
2018-12-29T07:29:57.310Z,6.50
2018-12-29T07:34:59.995Z,6.50
2018-12-29T07:40:02.405Z,6.50
2018-12-29T07:45:05.305Z,6.48
2018-12-29T07:50:07.480Z,6.44
2018-12-29T07:55:09.854Z,6.46
2018-12-29T08:00:12.140Z,6.50
2018-12-29T08:05:14.589Z,6.42
2018-12-29T08:10:16.857Z,6.41
2018-12-29T08:15:19.360Z,6.40
2018-12-29T08:20:21.603Z,6.36
2018-12-29T08:25:23.758Z,6.34
2018-12-29T08:30:26.724Z,6.34
2018-12-29T08:35:29.165Z,6.33
2018-12-29T08:40:31.351Z,6.34
2018-12-29T08:45:33.815Z,6.30
2018-12-29T08:50:36.016Z,6.27
2018-12-29T08:55:38.768Z,6.33
2018-12-29T09:00:41.152Z,6.35
2018-12-29T09:05:44.056Z,6.35
2018-12-29T09:10:46.183Z,6.34
2018-12-29T09:15:48.429Z,6.38
2018-12-29T09:20:50.631Z,6.40
2018-12-29T09:25:53.016Z,6.37
2018-12-29T09:30:55.301Z,6.39
2018-12-29T09:35:57.748Z,6.37
2018-12-29T09:41:00.122Z,6.42
2018-12-29T09:46:02.306Z,6.40
2018-12-29T09:51:05.229Z,6.42
2018-12-29T09:56:08.204Z,6.39
2018-12-29T10:01:11.159Z,6.41
2018-12-29T10:06:13.704Z,6.41
2018-12-29T10:11:16.012Z,6.43
2018-12-29T10:16:18.270Z,6.47
2018-12-29T10:21:20.743Z,6.47
2018-12-29T10:26:23.028Z,6.49
2018-12-29T10:31:25.820Z,6.51
2018-12-29T10:36:29.181Z,6.55
2018-12-29T10:41:32.306Z,6.56
2018-12-29T10:46:34.738Z,6.59
2018-12-29T10:51:37.400Z,6.63
2018-12-29T10:56:39.829Z,6.69
2018-12-29T11:01:42.026Z,6.65
2018-12-29T11:06:44.324Z,6.68
2018-12-29T11:11:46.858Z,6.71
2018-12-29T11:16:50.564Z,6.75
2018-12-29T11:21:53.054Z,6.79
2018-12-29T11:26:55.771Z,6.80
2018-12-29T11:31:59.075Z,6.86
2018-12-29T11:37:01.251Z,6.91
2018-12-29T11:42:03.800Z,6.98
2018-12-29T11:47:06.524Z,7.00
2018-12-29T11:52:09.805Z,7.05
2018-12-29T11:57:12.394Z,7.08
2018-12-29T12:02:15.135Z,7.08
2018-12-29T12:07:17.763Z,7.07
2018-12-29T12:12:20.869Z,7.07
2018-12-29T12:17:24.157Z,7.11
2018-12-29T12:22:26.444Z,7.16
2018-12-29T12:27:28.815Z,7.13
2018-12-29T12:32:31.633Z,7.12
2018-12-29T12:37:34.182Z,7.11
2018-12-29T12:42:36.647Z,7.09
2018-12-29T12:47:39.557Z,7.12
2018-12-29T12:52:41.972Z,7.11
2018-12-29T12:57:44.219Z,7.12
2018-12-29T13:02:47.118Z,7.12
2018-12-29T13:07:49.807Z,7.11
2018-12-29T13:12:52.475Z,7.11
2018-12-29T13:17:54.672Z,7.12
2018-12-29T13:22:56.858Z,7.19
2018-12-29T13:27:59.899Z,7.18
2018-12-29T13:33:02.254Z,7.21
2018-12-29T13:38:04.563Z,7.20
2018-12-29T13:43:07.292Z,7.18
2018-12-29T13:48:09.708Z,7.18
2018-12-29T13:53:12.471Z,7.20
2018-12-29T13:58:14.625Z,7.21
2018-12-29T14:03:16.890Z,7.25
2018-12-29T14:08:19.940Z,7.25
2018-12-29T14:13:22.625Z,7.26
2018-12-29T14:18:28.358Z,7.27
2018-12-29T14:23:29.139Z,7.28
2018-12-29T14:28:31.330Z,7.27
2018-12-29T14:33:33.542Z,7.28
2018-12-29T14:38:36.405Z,7.30
2018-12-29T14:43:38.609Z,7.32
2018-12-29T14:48:41.632Z,7.30
2018-12-29T14:53:43.885Z,7.34
2018-12-29T14:58:46.843Z,7.32
2018-12-29T15:03:49.386Z,7.31
2018-12-29T15:08:51.535Z,7.31
2018-12-29T15:13:53.715Z,7.31
2018-12-29T15:18:56.810Z,7.32
2018-12-29T15:24:00.006Z,7.34
2018-12-29T15:29:02.543Z,7.30
2018-12-29T15:34:05.318Z,7.31
2018-12-29T15:39:08.334Z,7.34
2018-12-29T15:44:10.791Z,7.35
2018-12-29T15:49:12.981Z,7.34
2018-12-29T15:54:15.932Z,7.33
2018-12-29T15:59:18.134Z,7.33
2018-12-29T16:04:20.885Z,7.32
2018-12-29T16:09:24.057Z,7.35
2018-12-29T16:14:27.197Z,7.35
2018-12-29T16:19:29.437Z,7.33
2018-12-29T16:24:32.454Z,7.34
2018-12-29T16:29:35.649Z,7.31
2018-12-29T16:34:37.836Z,7.30
2018-12-29T16:39:40.042Z,7.31
2018-12-29T16:44:42.383Z,7.32
2018-12-29T16:49:44.726Z,7.34
2018-12-29T16:54:47.637Z,7.38
2018-12-29T16:59:50.303Z,7.39
2018-12-29T17:04:52.745Z,7.41
2018-12-29T17:09:54.926Z,7.39
2018-12-29T17:14:58.441Z,7.40
2018-12-29T17:20:00.720Z,7.41
2018-12-29T17:25:03.949Z,7.41
2018-12-29T17:30:06.458Z,7.39
2018-12-29T17:35:09.060Z,7.40
2018-12-29T17:40:11.378Z,7.41
2018-12-29T17:45:14.247Z,7.39
2018-12-29T17:50:16.544Z,7.38
2018-12-29T17:55:19.461Z,7.34
2018-12-29T18:00:21.916Z,7.35
2018-12-29T18:05:24.072Z,7.31
2018-12-29T18:10:26.744Z,7.31
2018-12-29T18:15:29.018Z,7.31
2018-12-29T18:20:31.297Z,7.32
2018-12-29T18:25:33.504Z,7.31
2018-12-29T18:30:35.850Z,7.27
2018-12-29T18:35:38.005Z,7.21
2018-12-29T18:40:41.324Z,7.13
2018-12-29T18:45:43.555Z,7.10
2018-12-29T18:50:46.147Z,7.10
2018-12-29T18:55:49.621Z,7.08
2018-12-29T19:00:51.918Z,7.11
2018-12-29T19:05:54.729Z,7.13
2018-12-29T19:10:57.424Z,7.18
2018-12-29T19:16:00.458Z,7.17
2018-12-29T19:21:03.095Z,7.04
2018-12-29T19:26:06.011Z,6.95
2018-12-29T19:31:09.371Z,6.79
2018-12-29T19:36:11.524Z,6.63
2018-12-29T19:41:13.925Z,6.51
2018-12-29T19:46:16.355Z,6.43
2018-12-29T19:51:19.381Z,6.37
2018-12-29T19:56:22.115Z,6.24
2018-12-29T20:01:24.276Z,6.20
2018-12-29T20:06:26.726Z,6.14
2018-12-29T20:11:29.151Z,6.08
2018-12-29T20:16:31.676Z,6.08
2018-12-29T20:21:34.799Z,6.09
2018-12-29T20:26:38.180Z,6.09
2018-12-29T20:31:40.452Z,6.05
2018-12-29T20:36:42.587Z,6.01
2018-12-29T20:41:45.139Z,5.95
2018-12-29T20:46:47.365Z,5.84
2018-12-29T20:51:50.017Z,5.75
2018-12-29T20:56:52.700Z,5.69
2018-12-29T21:01:55.160Z,5.64
2018-12-29T21:06:57.869Z,5.62
2018-12-29T21:12:00.377Z,5.56
2018-12-29T21:17:02.715Z,5.54
2018-12-29T21:22:05.448Z,5.55
2018-12-29T21:27:08.272Z,5.56
2018-12-29T21:32:10.421Z,5.57
2018-12-29T21:37:12.581Z,5.59
2018-12-29T21:42:15.261Z,5.62
2018-12-29T21:47:18.126Z,5.70
2018-12-29T21:52:20.321Z,5.71
2018-12-29T21:57:22.463Z,5.70
2018-12-29T22:02:25.206Z,5.69
2018-12-29T22:07:27.912Z,5.66
2018-12-29T22:12:30.603Z,5.66
2018-12-29T22:17:33.241Z,5.66
2018-12-29T22:22:36.137Z,5.66
2018-12-29T22:27:38.359Z,5.66
2018-12-29T22:32:40.662Z,5.68
2018-12-29T22:37:42.847Z,5.69
2018-12-29T22:42:45.158Z,5.68
2018-12-29T22:47:47.976Z,5.70
2018-12-29T22:52:50.672Z,5.73
2018-12-29T22:57:53.181Z,5.76
2018-12-29T23:02:55.356Z,5.75
2018-12-29T23:07:58.642Z,5.75
2018-12-29T23:13:01.395Z,5.77
2018-12-29T23:18:04.624Z,5.77
2018-12-29T23:23:07.848Z,5.78
2018-12-29T23:28:10.496Z,5.81
2018-12-29T23:33:13.199Z,5.79
2018-12-29T23:38:15.494Z,5.80
2018-12-29T23:43:17.679Z,5.79
2018-12-29T23:48:19.884Z,5.82
2018-12-29T23:53:22.592Z,5.83
2018-12-29T23:58:25.385Z,5.89
